Time;durP1;ratioP1;P1;durP2;ratioP2;P2;SDS_P1;SDS_P2;PMS_P1;PMS_P2;Temp;Humidity;BMP_temperature;BMP_pressure;BME280_temperature;BME280_humidity;BME280_pressure;Samples;Min_cycle;Max_cycle;Signal;HPM_P1;HPM_P2
2022/05/11 00:01:26;;;;;;;8.43;4.20;;;;;;;;;;4898602;29;20021;-68
2022/05/11 00:03:52;;;;;;;4.35;3.95;;;;;;;;;;4898485;29;20032;-69
2022/05/11 00:06:19;;;;;;;4.88;4.30;;;;;;;;;;4912559;29;20027;-68
2022/05/11 00:08:45;;;;;;;5.07;4.15;;;;;;;;;;4898069;29;20459;-68
2022/05/11 00:11:12;;;;;;;4.63;4.13;;;;;;;;;;4898134;29;20024;-68
2022/05/11 00:13:38;;;;;;;4.65;4.18;;;;;;;;;;4898015;29;20021;-68
2022/05/11 00:16:04;;;;;;;5.03;4.50;;;;;;;;;;4898552;29;20390;-69
2022/05/11 00:18:31;;;;;;;6.45;4.53;;;;;;;;;;4897794;29;20028;-68
2022/05/11 00:20:57;;;;;;;5.15;4.00;;;;;;;;;;4897466;29;20100;-68
2022/05/11 00:23:23;;;;;;;4.25;3.85;;;;;;;;;;4897612;29;20032;-68
2022/05/11 00:25:50;;;;;;;7.25;4.25;;;;;;;;;;4897779;29;20506;-68
2022/05/11 00:28:16;;;;;;;9.10;4.50;;;;;;;;;;4897909;29;20067;-69
2022/05/11 00:30:43;;;;;;;7.75;4.50;;;;;;;;;;4898169;29;20024;-69
2022/05/11 00:33:11;;;;;;;4.35;3.95;;;;;;;;;;4897283;29;20398;-68
2022/05/11 00:35:37;;;;;;;6.63;4.40;;;;;;;;;;4897369;29;20036;-68
2022/05/11 00:38:04;;;;;;;6.35;4.50;;;;;;;;;;4898063;29;20032;-68
2022/05/11 00:40:31;;;;;;;7.43;4.40;;;;;;;;;;4897637;29;20031;-68
2022/05/11 00:42:58;;;;;;;5.20;4.13;;;;;;;;;;4928368;29;20067;-68
2022/05/11 00:45:24;;;;;;;7.40;4.38;;;;;;;;;;4897259;29;20044;-68
2022/05/11 00:47:56;;;;;;;5.43;4.05;;;;;;;;;;4896914;29;20486;-68
2022/05/11 00:50:25;;;;;;;6.93;4.35;;;;;;;;;;4897707;29;20032;-68
2022/05/11 00:52:52;;;;;;;5.45;4.90;;;;;;;;;;4896125;29;20039;-68
2022/05/11 00:55:22;;;;;;;4.50;3.78;;;;;;;;;;4897403;29;20385;-68
2022/05/11 00:57:51;;;;;;;4.95;4.18;;;;;;;;;;4896137;29;20027;-68
2022/05/11 01:00:18;;;;;;;5.82;4.50;;;;;;;;;;4896962;29;20045;-68
2022/05/11 01:02:46;;;;;;;4.82;4.22;;;;;;;;;;4896839;29;20024;-68
2022/05/11 01:05:12;;;;;;;4.95;4.40;;;;;;;;;;4897098;29;20036;-68
2022/05/11 01:07:39;;;;;;;6.10;4.70;;;;;;;;;;4897079;29;20021;-68
2022/05/11 01:10:06;;;;;;;5.35;4.78;;;;;;;;;;4897516;29;20051;-69
2022/05/11 01:12:35;;;;;;;4.47;4.07;;;;;;;;;;4897186;29;20079;-68
2022/05/11 01:15:04;;;;;;;9.05;4.50;;;;;;;;;;4896968;29;20039;-68
2022/05/11 01:17:31;;;;;;;5.35;4.32;;;;;;;;;;4896596;29;20017;-68
2022/05/11 01:19:58;;;;;;;5.82;4.43;;;;;;;;;;4897322;29;20405;-68
2022/05/11 01:22:37;;;;;;;5.05;4.55;;;;;;;;;;4897002;29;20052;-68
2022/05/11 01:25:06;;;;;;;6.68;4.43;;;;;;;;;;4893683;29;20391;-68
2022/05/11 01:27:36;;;;;;;8.50;4.30;;;;;;;;;;4897142;29;20376;-68
2022/05/11 01:30:07;;;;;;;7.63;4.80;;;;;;;;;;4896461;29;20045;-68
2022/05/11 01:32:33;;;;;;;;;;;;;;;;;;4896980;29;20442;-68
2022/05/11 01:35:14;;;;;;;8.45;4.20;;;;;;;;;;4894988;29;20211;-68
2022/05/11 01:37:46;;;;;;;6.95;4.75;;;;;;;;;;4882920;29;20032;-68
2022/05/11 01:40:12;;;;;;;5.75;5.13;;;;;;;;;;4896945;29;20021;-68
2022/05/11 01:42:39;;;;;;;7.30;4.97;;;;;;;;;;4897226;29;20435;-68
2022/05/11 01:45:05;;;;;;;5.50;5.00;;;;;;;;;;4896340;29;20035;-68
2022/05/11 01:47:32;;;;;;;7.95;5.07;;;;;;;;;;4896552;29;20031;-68
2022/05/11 01:49:58;;;;;;;10.50;5.05;;;;;;;;;;4896602;29;20569;-68
2022/05/11 01:52:24;;;;;;;5.40;4.90;;;;;;;;;;4896949;29;20031;-68
2022/05/11 01:54:51;;;;;;;5.78;5.18;;;;;;;;;;4897197;29;20505;-68
2022/05/11 01:57:17;;;;;;;5.63;4.97;;;;;;;;;;4896806;29;20033;-69
2022/05/11 01:59:43;;;;;;;5.82;5.22;;;;;;;;;;4896040;29;20387;-68
2022/05/11 02:02:09;;;;;;;5.45;4.95;;;;;;;;;;4896544;29;20028;-68
2022/05/11 02:10:06;;;;;;;5.82;4.93;;;;;;;;;;4893389;29;20037;-68
2022/05/11 02:12:32;;;;;;;4.97;4.47;;;;;;;;;;4896542;29;20039;-68
2022/05/11 02:14:59;;;;;;;5.50;4.63;;;;;;;;;;4896008;29;20027;-68
2022/05/11 02:17:25;;;;;;;7.88;4.93;;;;;;;;;;4896452;29;20501;-68
2022/05/11 02:19:51;;;;;;;7.32;4.80;;;;;;;;;;4896701;29;20054;-68
2022/05/11 02:22:18;;;;;;;9.75;5.20;;;;;;;;;;4896351;29;20071;-68
2022/05/11 02:24:44;;;;;;;5.43;4.88;;;;;;;;;;4895767;29;20087;-68
2022/05/11 02:27:11;;;;;;;6.50;5.03;;;;;;;;;;4896374;29;20103;-68
2022/05/11 02:29:37;;;;;;;6.03;5.05;;;;;;;;;;4895869;29;20569;-68
2022/05/11 02:32:04;;;;;;;4.93;4.43;;;;;;;;;;4896579;29;20039;-68
2022/05/11 02:37:16;;;;;;;5.88;5.30;;;;;;;;;;4894199;29;20490;-68
2022/05/11 02:39:42;;;;;;;5.25;4.75;;;;;;;;;;4896643;29;20032;-68
2022/05/11 02:42:09;;;;;;;7.75;5.35;;;;;;;;;;4896173;29;20025;-70
2022/05/11 02:44:35;;;;;;;7.72;5.20;;;;;;;;;;4896473;29;20409;-70
2022/05/11 02:47:01;;;;;;;4.85;4.38;;;;;;;;;;4914303;29;20031;-70
2022/05/11 02:49:28;;;;;;;7.28;5.03;;;;;;;;;;4899497;29;20036;-70
2022/05/11 02:51:54;;;;;;;5.40;4.90;;;;;;;;;;4900086;29;20029;-70
2022/05/11 02:54:20;;;;;;;5.88;4.50;;;;;;;;;;4899230;29;20059;-70
2022/05/11 02:56:47;;;;;;;5.53;4.97;;;;;;;;;;4898966;29;20033;-70
2022/05/11 02:59:13;;;;;;;5.00;4.50;;;;;;;;;;4899193;29;20028;-68
2022/05/11 03:01:39;;;;;;;8.02;5.03;;;;;;;;;;4899333;29;20021;-70
2022/05/11 03:04:06;;;;;;;5.13;4.57;;;;;;;;;;4899796;29;20368;-70
2022/05/11 03:06:32;;;;;;;5.22;4.50;;;;;;;;;;4899435;29;20033;-70
2022/05/11 03:08:58;;;;;;;6.57;5.30;;;;;;;;;;4899318;29;20036;-70
2022/05/11 03:11:25;;;;;;;5.88;5.28;;;;;;;;;;4898681;29;20035;-70
2022/05/11 03:13:51;;;;;;;6.57;5.07;;;;;;;;;;4899623;29;20032;-70
2022/05/11 03:16:18;;;;;;;10.07;4.82;;;;;;;;;;4899476;29;20031;-70
2022/05/11 03:18:44;;;;;;;7.32;5.60;;;;;;;;;;4899496;29;20474;-69
2022/05/11 03:21:11;;;;;;;6.00;5.40;;;;;;;;;;4898752;29;20052;-69
2022/05/11 03:23:37;;;;;;;5.25;4.75;;;;;;;;;;4898693;29;20426;-70
2022/05/11 03:26:03;;;;;;;6.13;5.40;;;;;;;;;;4898787;29;20028;-69
2022/05/11 03:28:30;;;;;;;6.38;5.45;;;;;;;;;;4899058;29;20029;-70
2022/05/11 03:30:56;;;;;;;9.15;5.55;;;;;;;;;;4899365;29;20493;-70
2022/05/11 03:36:07;;;;;;;6.97;5.68;;;;;;;;;;4898560;29;20028;-70
2022/05/11 03:38:34;;;;;;;6.15;5.53;;;;;;;;;;4898585;29;20478;-69
2022/05/11 03:41:00;;;;;;;8.98;5.53;;;;;;;;;;4898555;29;20036;-70
2022/05/11 03:43:26;;;;;;;7.57;5.63;;;;;;;;;;4898613;29;20541;-69
2022/05/11 03:45:52;;;;;;;5.82;5.20;;;;;;;;;;4899195;29;20047;-69
2022/05/11 03:48:19;;;;;;;6.65;5.30;;;;;;;;;;4898249;29;20029;-69
2022/05/11 03:50:45;;;;;;;5.68;5.00;;;;;;;;;;4898551;29;20393;-70
2022/05/11 03:53:11;;;;;;;6.07;5.47;;;;;;;;;;4898638;29;20504;-70
2022/05/11 03:55:38;;;;;;;5.90;5.40;;;;;;;;;;4897785;29;20021;-70
2022/05/11 03:58:04;;;;;;;8.27;5.32;;;;;;;;;;4897389;29;20032;-70
2022/05/11 04:00:32;;;;;;;7.72;5.72;;;;;;;;;;4898094;29;20029;-70
2022/05/11 04:02:58;;;;;;;5.40;4.90;;;;;;;;;;4898164;29;20024;-70
2022/05/11 04:05:25;;;;;;;8.10;6.07;;;;;;;;;;4898078;29;20470;-70
2022/05/11 04:07:51;;;;;;;9.32;5.68;;;;;;;;;;4928414;29;20028;-69
2022/05/11 04:10:18;;;;;;;6.53;5.15;;;;;;;;;;4897881;29;20036;-69
2022/05/11 04:12:45;;;;;;;7.95;5.60;;;;;;;;;;4898470;29;20385;-70
2022/05/11 04:15:12;;;;;;;8.10;5.53;;;;;;;;;;4897830;29;20148;-70
2022/05/11 04:17:39;;;;;;;6.22;5.07;;;;;;;;;;4897787;29;20413;-70
2022/05/11 04:20:06;;;;;;;6.22;5.63;;;;;;;;;;4897944;29;20481;-70
2022/05/11 04:22:33;;;;;;;7.10;5.55;;;;;;;;;;4897954;29;20047;-69
2022/05/11 04:24:59;;;;;;;6.82;5.55;;;;;;;;;;4897977;29;20028;-69
2022/05/11 04:27:25;;;;;;;8.73;5.95;;;;;;;;;;4898109;29;20031;-70
2022/05/11 04:29:52;;;;;;;10.65;6.03;;;;;;;;;;4897569;29;20535;-70
2022/05/11 04:32:18;;;;;;;7.93;5.68;;;;;;;;;;4897595;29;20021;-70
2022/05/11 04:34:44;;;;;;;5.82;5.18;;;;;;;;;;4928208;29;20078;-69
2022/05/11 04:37:14;;;;;;;7.50;5.00;;;;;;;;;;4897931;29;20024;-69
2022/05/11 04:39:41;;;;;;;6.50;5.57;;;;;;;;;;4897171;29;20028;-70
2022/05/11 04:42:08;;;;;;;6.68;5.50;;;;;;;;;;4897501;29;20021;-69
2022/05/11 04:44:35;;;;;;;6.70;5.00;;;;;;;;;;4897361;29;20087;-70
2022/05/11 04:47:12;;;;;;;6.35;5.55;;;;;;;;;;4897510;29;20024;-69
2022/05/11 04:49:39;;;;;;;7.13;5.47;;;;;;;;;;4882856;29;20067;-70
2022/05/11 04:52:10;;;;;;;8.43;5.35;;;;;;;;;;4898118;29;20493;-69
2022/05/11 04:54:37;;;;;;;8.32;5.22;;;;;;;;;;4897076;29;20033;-70
2022/05/11 04:57:04;;;;;;;6.07;5.10;;;;;;;;;;4897229;29;20036;-70
2022/05/11 04:59:32;;;;;;;5.93;4.97;;;;;;;;;;4897341;29;20501;-70
2022/05/11 05:01:59;;;;;;;6.10;5.40;;;;;;;;;;4897284;29;20498;-70
2022/05/11 05:04:28;;;;;;;6.28;5.13;;;;;;;;;;4897553;29;20037;-70
2022/05/11 05:06:55;;;;;;;7.70;5.45;;;;;;;;;;4897733;29;20031;-70
2022/05/11 05:09:22;;;;;;;5.68;5.18;;;;;;;;;;4896414;29;20047;-70
2022/05/11 05:11:49;;;;;;;6.88;5.70;;;;;;;;;;4897220;29;20031;-70
2022/05/11 05:14:15;;;;;;;7.32;4.97;;;;;;;;;;4897110;29;20042;-70
2022/05/11 05:16:41;;;;;;;8.98;5.78;;;;;;;;;;4897236;29;20490;-69
2022/05/11 05:19:09;;;;;;;6.05;4.97;;;;;;;;;;4897344;29;20032;-69
2022/05/11 05:21:36;;;;;;;6.75;6.05;;;;;;;;;;4896717;29;20057;-70
2022/05/11 05:24:02;;;;;;;8.20;5.10;;;;;;;;;;4896388;29;20040;-70
2022/05/11 05:26:29;;;;;;;9.30;5.15;;;;;;;;;;4896934;29;20029;-69
2022/05/11 05:31:40;;;;;;;9.93;5.55;;;;;;;;;;4882438;29;20036;-70
2022/05/11 05:34:06;;;;;;;8.70;5.32;;;;;;;;;;4897320;29;20029;-70
2022/05/11 05:36:36;;;;;;;7.90;4.85;;;;;;;;;;4896664;29;20033;-70
2022/05/11 05:39:03;;;;;;;10.85;5.28;;;;;;;;;;4896922;29;20035;-70
2022/05/11 05:41:30;;;;;;;7.65;5.45;;;;;;;;;;4896666;29;20035;-70
2022/05/11 05:43:56;;;;;;;12.45;5.60;;;;;;;;;;4895756;29;20028;-70
2022/05/11 05:46:24;;;;;;;8.82;5.40;;;;;;;;;;4896769;29;20490;-70
2022/05/11 05:48:50;;;;;;;8.65;5.32;;;;;;;;;;4897374;29;20043;-70
2022/05/11 05:51:17;;;;;;;9.02;4.80;;;;;;;;;;4896312;29;20037;-69
2022/05/11 05:53:45;;;;;;;7.47;4.53;;;;;;;;;;4894318;29;20024;-70
2022/05/11 05:56:12;;;;;;;7.75;4.80;;;;;;;;;;4895692;29;20401;-69
2022/05/11 05:58:38;;;;;;;7.32;4.50;;;;;;;;;;4895713;29;20040;-69
2022/05/11 06:01:05;;;;;;;6.88;4.50;;;;;;;;;;4897127;29;20027;-70
2022/05/11 06:03:33;;;;;;;5.75;4.85;;;;;;;;;;4896051;29;20021;-70
2022/05/11 06:05:59;;;;;;;11.50;4.80;;;;;;;;;;4896229;29;20032;-69
2022/05/11 06:08:26;;;;;;;13.88;3.97;;;;;;;;;;4896195;29;20032;-70
2022/05/11 06:10:53;;;;;;;14.60;4.80;;;;;;;;;;4896310;29;20032;-69
2022/05/11 06:13:22;;;;;;;10.20;4.35;;;;;;;;;;4896581;29;20032;-70
2022/05/11 06:15:49;;;;;;;4.38;3.97;;;;;;;;;;4894665;29;20028;-69
2022/05/11 06:18:16;;;;;;;5.00;3.83;;;;;;;;;;4896244;29;20028;-69
2022/05/11 06:20:42;;;;;;;15.32;4.07;;;;;;;;;;4897636;29;20044;-70
2022/05/11 06:23:09;;;;;;;8.02;3.65;;;;;;;;;;4899708;29;20058;-70
2022/05/11 06:25:37;;;;;;;5.65;3.53;;;;;;;;;;4899041;29;20027;-70
2022/05/11 06:28:04;;;;;;;5.07;3.30;;;;;;;;;;4896083;29;20050;-70
2022/05/11 06:30:30;;;;;;;5.60;3.80;;;;;;;;;;4899364;29;20043;-70
2022/05/11 06:32:57;;;;;;;5.00;3.72;;;;;;;;;;4899358;29;20025;-69
2022/05/11 06:35:23;;;;;;;4.60;3.70;;;;;;;;;;4899272;29;20031;-70
2022/05/11 06:37:54;;;;;;;112.40;9.65;;;;;;;;;;4899731;29;20025;-69
2022/05/11 06:40:21;;;;;;;19.98;4.60;;;;;;;;;;4898130;29;20032;-69
2022/05/11 06:42:52;;;;;;;23.63;4.60;;;;;;;;;;4898217;29;20060;-69
2022/05/11 06:45:19;;;;;;;20.73;4.70;;;;;;;;;;4899083;29;20063;-70
2022/05/11 06:47:46;;;;;;;6.90;3.25;;;;;;;;;;4899148;29;20043;-70
2022/05/11 06:50:12;;;;;;;5.47;3.10;;;;;;;;;;4898514;29;20410;-70
2022/05/11 06:52:39;;;;;;;15.02;3.83;;;;;;;;;;4899637;29;20017;-69
2022/05/11 07:00:36;;;;;;;5.30;2.85;;;;;;;;;;4898875;29;20518;-69
2022/05/11 07:03:07;;;;;;;4.13;2.88;;;;;;;;;;4913211;29;20017;-67
2022/05/11 07:05:35;;;;;;;4.43;3.17;;;;;;;;;;4898660;29;20028;-69
2022/05/11 07:08:02;;;;;;;4.03;2.80;;;;;;;;;;4896517;29;20021;-68
2022/05/11 07:10:30;;;;;;;10.88;3.17;;;;;;;;;;4898354;29;20049;-69
2022/05/11 07:12:56;;;;;;;5.30;2.88;;;;;;;;;;4899162;29;20031;-69
2022/05/11 07:15:23;;;;;;;7.63;2.60;;;;;;;;;;4898663;29;20035;-66
2022/05/11 07:17:52;;;;;;;6.22;2.80;;;;;;;;;;4912454;29;20033;-68
2022/05/11 07:20:29;;;;;;;7.95;3.00;;;;;;;;;;4897315;29;20027;-66
2022/05/11 07:22:56;;;;;;;9.30;2.75;;;;;;;;;;4898048;29;20040;-67
2022/05/11 07:25:24;;;;;;;7.20;3.40;;;;;;;;;;4898229;29;20087;-67
2022/05/11 07:27:51;;;;;;;7.57;3.10;;;;;;;;;;4898775;29;20037;-67
2022/05/11 07:30:19;;;;;;;16.40;2.78;;;;;;;;;;4897891;29;20537;-68
2022/05/11 07:32:46;;;;;;;9.27;3.10;;;;;;;;;;4897785;29;20029;-67
2022/05/11 07:35:13;;;;;;;4.65;2.70;;;;;;;;;;4898034;29;20033;-67
2022/05/11 07:37:39;;;;;;;5.25;2.70;;;;;;;;;;4897963;29;20025;-68
2022/05/11 07:40:07;;;;;;;2.90;2.35;;;;;;;;;;4898555;29;20029;-67
2022/05/11 07:42:34;;;;;;;4.35;3.00;;;;;;;;;;4897900;29;20063;-67
2022/05/11 07:45:01;;;;;;;5.07;2.72;;;;;;;;;;4897873;29;20031;-67
2022/05/11 07:47:27;;;;;;;4.95;2.22;;;;;;;;;;4897887;29;20020;-68
2022/05/11 07:49:53;;;;;;;6.13;2.30;;;;;;;;;;4897931;29;20036;-68
2022/05/11 07:52:20;;;;;;;2.85;2.60;;;;;;;;;;4897685;29;20421;-68
2022/05/11 07:54:46;;;;;;;4.45;2.90;;;;;;;;;;4897529;29;20040;-68
2022/05/11 07:59:59;;;;;;;3.97;2.60;;;;;;;;;;4897792;29;20519;-68
2022/05/11 08:02:27;;;;;;;3.70;2.63;;;;;;;;;;4897168;29;20023;-68
2022/05/11 08:04:57;;;;;;;3.28;2.67;;;;;;;;;;4896745;29;20035;-69
2022/05/11 08:07:26;;;;;;;5.80;2.50;;;;;;;;;;4897293;29;20027;-68
2022/05/11 08:09:59;;;;;;;3.63;2.58;;;;;;;;;;4897439;29;20099;-68
2022/05/11 08:12:26;;;;;;;8.30;2.70;;;;;;;;;;4897144;29;20486;-68
2022/05/11 08:14:53;;;;;;;4.75;2.78;;;;;;;;;;4897062;29;20039;-68
2022/05/11 08:17:23;;;;;;;3.47;2.60;;;;;;;;;;4896863;29;20013;-68
2022/05/11 08:19:50;;;;;;;4.10;2.78;;;;;;;;;;4896110;29;20044;-68
2022/05/11 08:22:18;;;;;;;3.60;2.78;;;;;;;;;;4896851;29;20044;-68
2022/05/11 08:24:45;;;;;;;6.10;2.67;;;;;;;;;;4897616;29;20028;-68
2022/05/11 08:27:11;;;;;;;3.30;2.40;;;;;;;;;;4896045;29;20033;-67
2022/05/11 08:35:08;;;;;;;3.03;2.50;;;;;;;;;;4895665;29;20032;-67
2022/05/11 08:37:34;;;;;;;9.27;2.70;;;;;;;;;;4897044;29;20024;-68
2022/05/11 08:40:00;;;;;;;4.45;2.60;;;;;;;;;;4897687;29;20025;-69
2022/05/11 08:42:29;;;;;;;7.72;2.50;;;;;;;;;;4896383;29;20504;-68
2022/05/11 08:44:55;;;;;;;7.65;2.80;;;;;;;;;;4896235;29;20033;-68
2022/05/11 08:47:39;;;;;;;4.55;2.55;;;;;;;;;;4896734;29;20371;-68
2022/05/11 08:50:13;;;;;;;4.80;2.58;;;;;;;;;;4896807;29;20421;-69
2022/05/11 08:52:52;;;;;;;3.50;2.33;;;;;;;;;;4882314;29;20532;-68
2022/05/11 08:55:27;;;;;;;7.13;2.28;;;;;;;;;;4896644;29;20062;-69
2022/05/11 08:57:54;;;;;;;4.43;2.45;;;;;;;;;;4925983;29;20498;-67
2022/05/11 09:00:21;;;;;;;7.00;2.42;;;;;;;;;;4895953;29;20385;-67
2022/05/11 09:02:56;;;;;;;4.40;2.20;;;;;;;;;;4896563;29;20516;-68
2022/05/11 09:05:26;;;;;;;3.00;2.28;;;;;;;;;;4896482;29;20389;-67
2022/05/11 09:07:53;;;;;;;4.80;2.10;;;;;;;;;;4895476;29;20496;-68
2022/05/11 09:10:30;;;;;;;4.82;2.17;;;;;;;;;;4895853;29;20029;-69
2022/05/11 09:12:58;;;;;;;2.30;1.90;;;;;;;;;;4895954;29;20047;-68
2022/05/11 09:15:45;;;;;;;4.60;1.77;;;;;;;;;;4895281;29;20032;-69
2022/05/11 09:18:11;;;;;;;1.85;1.63;;;;;;;;;;4894456;29;20042;-69
2022/05/11 09:20:37;;;;;;;3.60;1.80;;;;;;;;;;4895509;29;20481;-68
2022/05/11 09:23:05;;;;;;;5.57;2.13;;;;;;;;;;4895500;29;20029;-69
2022/05/11 09:25:34;;;;;;;3.85;1.88;;;;;;;;;;4896210;29;20021;-69
2022/05/11 09:28:29;;;;;;;6.95;2.08;;;;;;;;;;4896522;29;20643;-68
2022/05/11 09:31:01;;;;;;;5.22;1.73;;;;;;;;;;4894783;29;20033;-68
2022/05/11 09:33:32;;;;;;;2.20;1.75;;;;;;;;;;4895263;29;20478;-69
2022/05/11 09:36:02;;;;;;;9.48;1.98;;;;;;;;;;4895931;29;20025;-69
2022/05/11 09:38:46;;;;;;;6.15;1.80;;;;;;;;;;4895940;29;20025;-69
2022/05/11 09:41:18;;;;;;;9.10;1.80;;;;;;;;;;4895948;29;20393;-68
2022/05/11 09:43:53;;;;;;;4.03;1.85;;;;;;;;;;4895421;29;20028;-68
2022/05/11 09:46:20;;;;;;;5.40;1.80;;;;;;;;;;4896140;29;20035;-67
2022/05/11 09:49:04;;;;;;;6.55;1.85;;;;;;;;;;4894334;29;20038;-68
2022/05/11 09:51:41;;;;;;;4.13;1.70;;;;;;;;;;4895635;29;20058;-68
2022/05/11 09:54:07;;;;;;;5.35;1.50;;;;;;;;;;4895753;29;20036;-68
2022/05/11 09:56:34;;;;;;;1.65;1.55;;;;;;;;;;4899184;29;20015;-68
2022/05/11 09:59:22;;;;;;;3.08;1.52;;;;;;;;;;4897620;29;20048;-68
2022/05/11 10:01:50;;;;;;;3.67;1.60;;;;;;;;;;4882953;29;20032;-67
2022/05/11 10:04:17;;;;;;;2.13;1.60;;;;;;;;;;4897371;29;20514;-67
2022/05/11 10:06:49;;;;;;;3.17;1.83;;;;;;;;;;4900141;29;20096;-68
2022/05/11 10:09:20;;;;;;;4.90;1.60;;;;;;;;;;4899909;29;20055;-69
2022/05/11 10:11:52;;;;;;;2.22;1.75;;;;;;;;;;4899028;29;20028;-68
2022/05/11 10:22:45;;;;;;;3.10;1.40;;;;;;;;;;4886024;29;20028;-69
2022/05/11 10:25:15;;;;;;;4.95;1.70;;;;;;;;;;4900084;29;20548;-68
2022/05/11 10:28:05;;;;;;;4.45;1.98;;;;;;;;;;4894889;29;20033;-68
2022/05/11 10:30:49;;;;;;;2.92;1.67;;;;;;;;;;4899329;29;20021;-68
2022/05/11 10:33:34;;;;;;;6.80;1.90;;;;;;;;;;4899429;29;20498;-68
2022/05/11 10:36:10;;;;;;;3.00;1.80;;;;;;;;;;4899671;29;20036;-68
2022/05/11 10:38:39;;;;;;;5.03;1.88;;;;;;;;;;4899441;29;20031;-68
2022/05/11 10:41:24;;;;;;;1.60;1.50;;;;;;;;;;4899269;29;20033;-68
2022/05/11 10:43:50;;;;;;;3.28;1.60;;;;;;;;;;4886470;29;20393;-68
2022/05/11 10:46:22;;;;;;;2.40;1.50;;;;;;;;;;4900003;29;20055;-68
2022/05/11 10:48:58;;;;;;;4.45;1.67;;;;;;;;;;4900013;29;20525;-68
2022/05/11 10:51:27;;;;;;;3.15;1.67;;;;;;;;;;4899321;29;20031;-68
2022/05/11 10:54:05;;;;;;;8.02;1.83;;;;;;;;;;4899206;29;20033;-68
2022/05/11 10:56:31;;;;;;;3.47;1.90;;;;;;;;;;4899108;29;20099;-68
2022/05/11 10:58:58;;;;;;;3.13;2.00;;;;;;;;;;4899225;29;20454;-68
2022/05/11 11:01:26;;;;;;;2.97;1.90;;;;;;;;;;4899404;29;20100;-68
2022/05/11 11:03:52;;;;;;;7.47;2.20;;;;;;;;;;4897633;29;20020;-68
2022/05/11 11:09:15;;;;;;;5.38;2.00;;;;;;;;;;4898282;29;20446;-68
2022/05/11 11:11:42;;;;;;;;;;;;;;;;;;4898767;29;20021;-69
2022/05/11 11:14:11;;;;;;;2.95;1.73;;;;;;;;;;4897457;29;19911;-68
2022/05/11 11:16:38;;;;;;;5.30;1.90;;;;;;;;;;4884201;29;20020;-68
2022/05/11 11:19:06;;;;;;;5.78;1.90;;;;;;;;;;4895340;29;20099;-68
2022/05/11 11:21:33;;;;;;;3.22;1.92;;;;;;;;;;4898617;29;20057;-68
2022/05/11 11:24:13;;;;;;;5.35;2.10;;;;;;;;;;4898432;29;20040;-68
2022/05/11 11:26:58;;;;;;;3.25;1.80;;;;;;;;;;4898735;29;20029;-68
2022/05/11 11:29:26;;;;;;;2.60;1.90;;;;;;;;;;4898523;29;20033;-68
2022/05/11 11:31:59;;;;;;;9.32;2.38;;;;;;;;;;4898349;29;20502;-68
2022/05/11 11:34:27;;;;;;;7.60;2.10;;;;;;;;;;4898493;29;20043;-68
2022/05/11 11:36:56;;;;;;;5.63;2.20;;;;;;;;;;4898991;29;20025;-69
2022/05/11 11:39:41;;;;;;;2.38;1.90;;;;;;;;;;4897909;29;20045;-68
2022/05/11 11:42:07;;;;;;;3.00;2.10;;;;;;;;;;4898220;29;20025;-68
2022/05/11 11:44:46;;;;;;;4.10;2.08;;;;;;;;;;4898135;29;20028;-68
2022/05/11 11:47:27;;;;;;;4.10;1.92;;;;;;;;;;4898239;29;20020;-68
2022/05/11 11:49:58;;;;;;;3.22;1.92;;;;;;;;;;4928635;29;20540;-68
2022/05/11 11:52:44;;;;;;;6.85;2.17;;;;;;;;;;4898187;29;20036;-68
2022/05/11 11:55:19;;;;;;;5.57;1.95;;;;;;;;;;4894997;29;20025;-68
2022/05/11 11:57:46;;;;;;;6.13;2.13;;;;;;;;;;4898420;29;20043;-68
2022/05/11 12:00:35;;;;;;;7.20;2.10;;;;;;;;;;4898163;29;20051;-68
2022/05/11 12:03:02;;;;;;;2.85;1.60;;;;;;;;;;4891667;29;20049;-67
2022/05/11 12:05:39;;;;;;;2.05;1.85;;;;;;;;;;4891798;29;20041;-68
2022/05/11 12:17:08;;;;;;;5.75;1.80;;;;;;;;;;4880628;29;20419;-68
2022/05/11 12:19:36;;;;;;;3.47;2.20;;;;;;;;;;4895463;29;20054;-68
2022/05/11 12:22:13;;;;;;;4.70;2.10;;;;;;;;;;4891973;29;20059;-68
2022/05/11 12:24:57;;;;;;;4.55;1.80;;;;;;;;;;4896063;29;20518;-68
2022/05/11 12:27:25;;;;;;;6.43;2.00;;;;;;;;;;4891335;29;20049;-68
2022/05/11 12:29:54;;;;;;;2.75;1.92;;;;;;;;;;4891296;29;20047;-68
2022/05/11 12:32:37;;;;;;;5.80;1.77;;;;;;;;;;4891329;29;20025;-68
2022/05/11 12:35:09;;;;;;;6.75;1.83;;;;;;;;;;4892083;29;20556;-68
2022/05/11 12:37:37;;;;;;;3.33;2.20;;;;;;;;;;4895306;29;20036;-68
2022/05/11 12:40:12;;;;;;;3.70;1.58;;;;;;;;;;4883353;29;20533;-68
2022/05/11 12:42:41;;;;;;;5.30;1.80;;;;;;;;;;4897541;29;20029;-68
2022/05/11 12:45:19;;;;;;;4.72;1.52;;;;;;;;;;4897185;29;20028;-67
2022/05/11 12:47:47;;;;;;;4.70;2.00;;;;;;;;;;4897095;29;20033;-68
2022/05/11 12:50:40;;;;;;;4.95;1.80;;;;;;;;;;4897155;29;20405;-68
2022/05/11 12:53:12;;;;;;;7.55;2.08;;;;;;;;;;4896603;29;20028;-67
2022/05/11 12:55:38;;;;;;;8.38;1.80;;;;;;;;;;4882843;29;20032;-68
2022/05/11 12:58:05;;;;;;;2.13;1.63;;;;;;;;;;4897758;29;20502;-68
2022/05/11 13:00:33;;;;;;;2.67;2.20;;;;;;;;;;4897071;29;20043;-68
2022/05/11 13:03:00;;;;;;;3.42;1.60;;;;;;;;;;4896921;29;20490;-68
2022/05/11 13:05:29;;;;;;;4.30;1.90;;;;;;;;;;4897007;29;20028;-68
2022/05/11 13:07:59;;;;;;;8.02;2.08;;;;;;;;;;4927630;29;20031;-68
2022/05/11 13:10:25;;;;;;;;;;;;;;;;;;4897855;29;20029;-68
2022/05/11 13:12:53;;;;;;;9.98;2.25;;;;;;;;;;4897252;29;20374;-68
2022/05/11 13:15:38;;;;;;;5.60;1.92;;;;;;;;;;4897106;29;20035;-67
2022/05/11 13:18:06;;;;;;;3.88;1.90;;;;;;;;;;4897034;29;20035;-68
2022/05/11 13:20:36;;;;;;;6.38;1.88;;;;;;;;;;4896177;29;20066;-67
2022/05/11 13:23:03;;;;;;;7.07;1.93;;;;;;;;;;4896811;29;20033;-67
2022/05/11 13:25:46;;;;;;;3.20;1.90;;;;;;;;;;4896949;29;20043;-68
2022/05/11 13:28:14;;;;;;;5.75;2.00;;;;;;;;;;4893959;29;20023;-67
2022/05/11 13:30:45;;;;;;;3.22;2.17;;;;;;;;;;4896260;29;20025;-68
2022/05/11 13:33:30;;;;;;;2.58;1.88;;;;;;;;;;4896599;29;20030;-67
2022/05/11 13:36:14;;;;;;;7.82;2.20;;;;;;;;;;4896364;29;20032;-68
2022/05/11 13:38:54;;;;;;;5.03;1.92;;;;;;;;;;4896716;29;20042;-67
2022/05/11 13:41:26;;;;;;;7.90;2.20;;;;;;;;;;4896500;29;20084;-67
2022/05/11 13:43:54;;;;;;;4.38;2.30;;;;;;;;;;4896899;29;20029;-69
2022/05/11 13:46:32;;;;;;;5.28;2.17;;;;;;;;;;4897020;29;20040;-69
2022/05/11 13:49:16;;;;;;;5.80;2.40;;;;;;;;;;4897042;29;20027;-67
2022/05/11 13:51:43;;;;;;;9.90;2.35;;;;;;;;;;4896748;29;20521;-68
2022/05/11 13:54:28;;;;;;;7.68;2.45;;;;;;;;;;4896568;29;20028;-68
2022/05/11 13:57:02;;;;;;;6.07;2.28;;;;;;;;;;4896667;29;20029;-70
2022/05/11 13:59:29;;;;;;;7.13;2.03;;;;;;;;;;4896290;29;20513;-67
2022/05/11 14:01:56;;;;;;;9.75;2.20;;;;;;;;;;4896770;29;20032;-68
2022/05/11 14:04:31;;;;;;;4.78;2.15;;;;;;;;;;4896237;29;20047;-70
2022/05/11 14:06:59;;;;;;;8.05;2.70;;;;;;;;;;4897119;29;20013;-68
2022/05/11 14:09:26;;;;;;;6.18;2.55;;;;;;;;;;4896503;29;20482;-70
2022/05/11 14:11:53;;;;;;;5.70;2.55;;;;;;;;;;4896470;29;20033;-69
2022/05/11 14:14:19;;;;;;;5.93;2.50;;;;;;;;;;4895335;29;20032;-69
2022/05/11 14:16:45;;;;;;;5.88;2.45;;;;;;;;;;4911150;29;20035;-69
2022/05/11 14:19:14;;;;;;;8.00;2.50;;;;;;;;;;4896313;29;20406;-69
2022/05/11 14:21:43;;;;;;;5.07;2.10;;;;;;;;;;4895821;29;20514;-69
2022/05/11 14:24:10;;;;;;;6.97;2.42;;;;;;;;;;4896366;29;20035;-69
2022/05/11 14:26:36;;;;;;;5.97;2.38;;;;;;;;;;4896510;29;20397;-69
2022/05/11 14:29:03;;;;;;;5.53;2.42;;;;;;;;;;4896707;29;20028;-69
2022/05/11 14:31:30;;;;;;;8.23;2.20;;;;;;;;;;4896536;29;20021;-69
2022/05/11 14:33:56;;;;;;;6.00;2.55;;;;;;;;;;4896536;29;20371;-69
2022/05/11 14:36:23;;;;;;;6.60;2.47;;;;;;;;;;4896307;29;20510;-69
2022/05/11 14:38:49;;;;;;;9.23;2.60;;;;;;;;;;4896301;29;20021;-69
2022/05/11 14:41:15;;;;;;;6.72;2.80;;;;;;;;;;4897863;29;20029;-69
2022/05/11 14:43:42;;;;;;;9.30;2.45;;;;;;;;;;4899705;29;20036;-69
2022/05/11 14:46:19;;;;;;;10.15;2.60;;;;;;;;;;4900140;29;20029;-69
2022/05/11 14:48:47;;;;;;;7.88;2.22;;;;;;;;;;4899523;29;20473;-69
2022/05/11 14:51:15;;;;;;;8.88;2.60;;;;;;;;;;4899748;29;20063;-69
2022/05/11 14:53:42;;;;;;;4.22;1.95;;;;;;;;;;4899559;29;20050;-69
2022/05/11 14:56:09;;;;;;;9.90;2.58;;;;;;;;;;4899474;29;20037;-69
2022/05/11 15:04:19;;;;;;;6.13;2.25;;;;;;;;;;4899770;29;20041;-67
2022/05/11 15:06:46;;;;;;;3.70;1.90;;;;;;;;;;4929965;29;20040;-69
2022/05/11 15:09:12;;;;;;;9.52;2.65;;;;;;;;;;4899428;29;20040;-69
2022/05/11 15:14:27;;;;;;;6.25;2.25;;;;;;;;;;4899019;29;20405;-69
2022/05/11 15:16:54;;;;;;;7.80;2.85;;;;;;;;;;4896088;29;20079;-69
2022/05/11 15:19:20;;;;;;;11.27;2.35;;;;;;;;;;4899115;29;20033;-69
2022/05/11 15:21:47;;;;;;;9.25;2.60;;;;;;;;;;4899316;29;20054;-69
2022/05/11 15:24:13;;;;;;;9.63;2.15;;;;;;;;;;4898964;29;20025;-69
2022/05/11 15:26:40;;;;;;;6.45;2.30;;;;;;;;;;4898960;29;20507;-69
2022/05/11 15:29:06;;;;;;;7.55;2.05;;;;;;;;;;4899074;29;20021;-69
2022/05/11 15:31:32;;;;;;;4.10;1.92;;;;;;;;;;4898828;29;20032;-69
2022/05/11 15:33:59;;;;;;;3.92;1.90;;;;;;;;;;4899356;29;20512;-69
2022/05/11 15:36:25;;;;;;;4.38;1.95;;;;;;;;;;4898850;29;20027;-69
2022/05/11 15:38:51;;;;;;;9.90;2.42;;;;;;;;;;4898733;29;20512;-69
2022/05/11 15:41:18;;;;;;;7.60;2.10;;;;;;;;;;4899077;29;20024;-69
2022/05/11 15:43:44;;;;;;;8.27;3.83;;;;;;;;;;4898777;29;20025;-69
2022/05/11 15:46:10;;;;;;;7.05;2.53;;;;;;;;;;4898656;29;20071;-69
2022/05/11 15:48:37;;;;;;;4.95;2.17;;;;;;;;;;4928942;29;20400;-69
2022/05/11 15:51:03;;;;;;;8.48;2.40;;;;;;;;;;4898517;29;20025;-69